Time;durP1;ratioP1;P1;durP2;ratioP2;P2;SDS_P1;SDS_P2;PMS_P1;PMS_P2;Temp;Humidity;BMP_temperature;BMP_pressure;BME280_temperature;BME280_humidity;BME280_pressure;Samples;Min_cycle;Max_cycle;Signal;HPM_P1;HPM_P2
2022/06/30 00:01:16;;;;;;;13.70;12.40;;;;;;;24.07;70.16;97661.39;105509;1284;24377;-85
2022/06/30 00:03:43;;;;;;;14.80;13.30;;;;;;;24.06;70.39;97660.67;106905;1284;22553;-86
2022/06/30 00:06:11;;;;;;;16.50;13.40;;;;;;;24.00;70.38;97660.52;107159;1284;23319;-86
2022/06/30 00:08:39;;;;;;;16.80;14.00;;;;;;;24.03;70.86;97656.51;105548;1284;22553;-86
2022/06/30 00:11:07;;;;;;;14.70;13.30;;;;;;;24.05;70.38;97657.06;105503;1284;22564;-87
2022/06/30 00:13:40;;;;;;;16.30;14.60;;;;;;;23.96;70.53;97660.52;105363;1285;23241;-87
2022/06/30 00:16:09;;;;;;;14.90;13.40;;;;;;;23.94;70.73;97658.95;105521;1284;23314;-87
2022/06/30 00:18:37;;;;;;;13.90;12.50;;;;;;;23.99;70.85;97652.34;105224;1285;22584;-84
2022/06/30 00:21:06;;;;;;;14.40;13.00;;;;;;;24.03;70.27;97648.89;105388;1284;24106;-86
2022/06/30 00:23:34;;;;;;;15.70;13.90;;;;;;;24.02;70.52;97648.09;105214;1287;22712;-88
2022/06/30 00:26:03;;;;;;;18.30;15.20;;;;;;;24.01;69.98;97644.95;105594;1285;22575;-87
2022/06/30 00:28:31;;;;;;;17.50;14.00;;;;;;;23.89;69.99;97640.70;106204;1284;25364;-90
2022/06/30 00:30:59;;;;;;;15.70;14.10;;;;;;;23.81;69.98;97641.27;105612;1284;24346;-84
2022/06/30 00:33:27;;;;;;;13.90;12.50;;;;;;;23.74;70.21;97640.54;105483;1284;25506;-90
2022/06/30 00:35:55;;;;;;;14.70;13.30;;;;;;;23.71;70.16;97632.67;105539;1285;22580;-91
2022/06/30 00:38:23;;;;;;;15.70;14.00;;;;;;;23.67;70.32;97629.20;105488;1284;22588;-88
2022/06/30 00:40:52;;;;;;;15.50;13.90;;;;;;;23.67;70.25;97625.42;105376;1284;22716;-89
2022/06/30 00:43:20;;;;;;;16.10;14.40;;;;;;;23.62;70.20;97622.98;105451;1284;23202;-88
2022/06/30 00:50:10;;;;;;;13.60;12.20;;;;;;;23.51;69.88;97616.52;105598;1284;22576;-89
2022/06/30 00:52:39;;;;;;;14.40;12.40;;;;;;;23.47;70.00;97613.77;105136;1286;24260;-89
2022/06/30 00:55:08;;;;;;;14.20;12.50;;;;;;;23.45;70.28;97618.33;105782;1284;22560;-93
2022/06/30 00:57:41;;;;;;;13.80;12.50;;;;;;;23.43;70.26;97620.61;107087;1284;23152;-92
2022/06/30 01:00:12;;;;;;;14.70;12.70;;;;;;;23.41;70.26;97623.89;107348;1284;22649;-90
2022/06/30 01:03:21;;;;;;;15.80;13.70;;;;;;;23.40;70.37;97623.35;107603;1274;22619;-91
2022/06/30 01:06:11;;;;;;;14.80;13.20;;;;;;;23.40;70.60;97620.05;108248;1272;22539;-93
2022/06/30 01:08:40;;;;;;;13.50;11.90;;;;;;;23.42;70.55;97621.79;108442;1274;22574;-91
2022/06/30 01:27:38;;;;;;;15.20;13.00;;;;;;;23.43;71.12;97612.67;108582;1272;23938;-91
2022/06/30 01:30:07;;;;;;;15.10;13.00;;;;;;;23.40;71.13;97613.30;105088;1285;24055;-84
2022/06/30 01:32:35;;;;;;;16.20;14.50;;;;;;;23.38;71.16;97615.25;105293;1284;25302;-84
2022/06/30 01:35:03;;;;;;;14.60;13.20;;;;;;;23.43;71.20;97615.27;105308;1284;22565;-85
2022/06/30 01:37:55;;;;;;;14.30;12.90;;;;;;;23.44;70.91;97617.30;106758;1274;22585;-92
2022/06/30 01:40:27;;;;;;;15.00;12.90;;;;;;;23.45;71.04;97620.54;105441;1284;22724;-83
2022/06/30 01:42:56;;;;;;;18.50;14.30;;;;;;;23.46;71.22;97616.20;105584;1286;22736;-83
2022/06/30 01:45:24;;;;;;;17.00;13.60;;;;;;;23.45;70.98;97616.75;105588;1284;24223;-86
2022/06/30 01:47:52;;;;;;;17.40;15.70;;;;;;;23.34;70.72;97616.96;105279;1285;22563;-88
2022/06/30 01:50:24;;;;;;;18.00;14.00;;;;;;;23.18;70.96;97620.70;105287;1287;22768;-87
2022/06/30 01:52:53;;;;;;;16.00;13.50;;;;;;;23.01;70.83;97611.71;105419;1284;24465;-87
2022/06/30 01:55:21;;;;;;;15.80;14.20;;;;;;;22.89;71.17;97611.17;105156;1285;208047;-87
2022/06/30 01:57:50;;;;;;;16.20;14.50;;;;;;;22.80;71.53;97604.62;105432;1284;22593;-86
2022/06/30 02:00:21;;;;;;;14.90;13.40;;;;;;;22.76;72.22;97603.67;105278;1284;22583;-87
2022/06/30 02:03:29;;;;;;;16.90;14.40;;;;;;;22.71;72.69;97601.21;105432;1284;24494;-85
2022/06/30 02:06:39;;;;;;;20.10;16.50;;;;;;;22.64;72.93;97597.35;105431;1284;22587;-86
2022/06/30 02:09:06;;;;;;;17.30;15.00;;;;;;;22.63;73.41;97592.00;105346;1284;24408;-87
2022/06/30 02:11:35;;;;;;;16.10;14.70;;;;;;;22.62;73.36;97592.79;105289;1284;24225;-87
2022/06/30 02:14:03;;;;;;;17.20;15.50;;;;;;;22.65;74.21;97596.34;105446;1284;23022;-87
2022/06/30 02:16:35;;;;;;;15.30;13.90;;;;;;;22.67;74.28;97597.73;105355;1284;22669;-85
2022/06/30 02:19:04;;;;;;;17.20;15.30;;;;;;;22.66;74.39;97593.51;105574;1283;23042;-86
2022/06/30 02:21:31;;;;;;;19.60;16.50;;;;;;;22.65;74.27;97592.71;106779;1284;22592;-85
2022/06/30 02:23:59;;;;;;;18.10;15.80;;;;;;;22.66;74.26;97589.50;105897;1284;25389;-87
2022/06/30 02:27:23;;;;;;;16.90;15.30;;;;;;;22.70;74.79;97595.16;105316;1284;23436;-86
2022/06/30 02:29:52;;;;;;;17.10;14.90;;;;;;;22.71;74.97;97590.46;105310;1284;22775;-87
2022/06/30 02:32:21;;;;;;;17.30;15.50;;;;;;;22.73;74.76;97594.94;105424;1286;24201;-86
2022/06/30 02:34:50;;;;;;;16.70;14.90;;;;;;;22.74;74.93;97597.14;105293;1284;25416;-85
2022/06/30 02:37:19;;;;;;;17.70;16.00;;;;;;;22.72;74.71;97602.48;105412;1284;22558;-85
2022/06/30 02:39:47;;;;;;;16.00;14.50;;;;;;;22.71;74.83;97600.10;105289;1286;22588;-89
2022/06/30 02:42:16;;;;;;;18.60;14.90;;;;;;;22.72;74.98;97598.39;105304;1284;22556;-86
2022/06/30 02:44:44;;;;;;;17.10;15.30;;;;;;;22.74;74.96;97598.71;105248;1284;22600;-91
2022/06/30 02:47:12;;;;;;;17.30;15.40;;;;;;;22.77;74.90;97602.26;105466;1284;25426;-90
2022/06/30 02:49:40;;;;;;;17.40;15.90;;;;;;;22.74;74.82;97599.35;105554;1284;24255;-89
2022/06/30 02:52:08;;;;;;;16.90;14.90;;;;;;;22.73;74.92;97601.39;105567;1284;22726;-91
2022/06/30 02:54:37;;;;;;;18.50;15.40;;;;;;;22.71;75.23;97600.11;105469;1284;24265;-90
2022/06/30 02:57:05;;;;;;;20.10;14.00;;;;;;;22.70;75.45;97595.31;105231;1285;22571;-89
2022/06/30 02:59:33;;;;;;;16.30;15.00;;;;;;;22.68;75.21;97593.27;105403;1284;23252;-89
2022/06/30 03:05:44;;;;;;;18.10;16.40;;;;;;;22.72;74.96;97589.67;105680;1284;22566;-91
2022/06/30 03:12:58;;;;;;;16.60;14.80;;;;;;;22.67;75.21;97599.63;105415;1284;22649;-90
2022/06/30 03:15:26;;;;;;;19.20;16.50;;;;;;;22.68;75.43;97601.52;105366;1284;22574;-88
2022/06/30 03:17:56;;;;;;;18.70;16.70;;;;;;;22.73;75.37;97606.23;105331;1284;22596;-89
2022/06/30 03:20:24;;;;;;;18.90;16.90;;;;;;;22.72;75.31;97603.80;105471;1284;22562;-90
2022/06/30 03:22:52;;;;;;;17.30;15.70;;;;;;;22.71;75.25;97604.10;105401;1284;25427;-89
2022/06/30 03:25:20;;;;;;;23.00;16.60;;;;;;;22.71;75.35;97600.58;105506;1284;24353;-88
2022/06/30 03:27:48;;;;;;;30.30;15.50;;;;;;;22.73;75.47;97602.95;106630;1283;22711;-89
2022/06/30 03:30:16;;;;;;;25.80;17.60;;;;;;;22.74;75.53;97609.94;107906;1284;25393;-88
2022/06/30 03:32:44;;;;;;;47.20;19.50;;;;;;;22.75;75.41;97611.36;106161;1284;22867;-88
2022/06/30 03:35:12;;;;;;;27.50;17.80;;;;;;;22.76;75.27;97605.93;105855;1284;22695;-89
2022/06/30 03:37:40;;;;;;;21.20;16.40;;;;;;;22.75;75.33;97608.69;105353;1283;25495;-89
2022/06/30 03:40:09;;;;;;;32.20;16.80;;;;;;;22.76;75.17;97609.31;105374;1284;24231;-90
2022/06/30 03:42:37;;;;;;;22.00;16.50;;;;;;;22.79;75.26;97612.70;105464;1284;24348;-89
2022/06/30 03:45:06;;;;;;;22.30;15.50;;;;;;;22.83;75.36;97617.20;105460;1284;22892;-90
2022/06/30 03:47:34;;;;;;;18.20;16.20;;;;;;;22.89;75.46;97621.45;105423;1284;22581;-89
2022/06/30 03:50:02;;;;;;;17.70;16.10;;;;;;;22.92;75.12;97622.74;105405;1284;25324;-90
2022/06/30 03:52:30;;;;;;;18.50;16.70;;;;;;;22.94;75.13;97628.45;105472;1284;22563;-90
2022/06/30 03:54:58;;;;;;;17.90;15.90;;;;;;;22.84;75.16;97616.11;105460;1284;24109;-90
2022/06/30 03:57:26;;;;;;;18.10;16.20;;;;;;;22.96;75.17;97634.45;105429;1284;23472;-89
2022/06/30 03:59:54;;;;;;;18.70;16.90;;;;;;;22.97;75.20;97639.80;105234;1287;22572;-89
2022/06/30 04:02:23;;;;;;;20.90;15.70;;;;;;;23.00;75.44;97639.27;105356;1284;22637;-89
2022/06/30 04:04:51;;;;;;;19.10;17.20;;;;;;;23.11;75.15;97638.67;105439;1284;22714;-89
2022/06/30 04:07:19;;;;;;;21.10;17.20;;;;;;;23.14;74.89;97637.98;105408;1284;25695;-91
2022/06/30 04:09:47;;;;;;;19.20;16.40;;;;;;;23.15;74.85;97639.23;105458;1284;22572;-90
2022/06/30 04:12:15;;;;;;;34.30;17.30;;;;;;;23.18;74.91;97642.70;105504;1284;25437;-90
2022/06/30 04:14:43;;;;;;;20.40;16.70;;;;;;;23.24;75.06;97641.85;105506;1284;25354;-89
2022/06/30 04:17:11;;;;;;;19.80;17.50;;;;;;;23.24;74.93;97643.20;105425;1284;25292;-90
2022/06/30 04:23:09;;;;;;;18.90;17.10;;;;;;;23.35;74.77;97657.43;107361;1272;22709;-89
2022/06/30 04:55:43;;;;;;;17.80;16.00;;;;;;;23.57;75.82;97701.46;104101;1285;22584;-89
2022/06/30 04:58:12;;;;;;;18.90;17.20;;;;;;;23.82;75.67;97696.91;105105;1285;22564;-89
2022/06/30 05:00:40;;;;;;;17.40;15.60;;;;;;;24.11;75.28;97697.80;105457;1285;22592;-91
2022/06/30 05:03:08;;;;;;;19.20;17.40;;;;;;;24.31;74.65;97687.23;105126;1289;24329;-91
2022/06/30 05:05:36;;;;;;;19.10;17.00;;;;;;;24.38;74.07;97687.00;105843;1285;23310;-90
2022/06/30 05:12:50;;;;;;;19.50;17.70;;;;;;;24.46;73.57;97675.14;105427;1285;25220;-91
2022/06/30 05:15:18;;;;;;;17.70;16.20;;;;;;;24.49;73.59;97668.27;105342;1288;24204;-92
2022/06/30 05:17:46;;;;;;;20.00;17.90;;;;;;;24.56;73.29;97667.72;105160;1286;24110;-90
2022/06/30 05:20:15;;;;;;;20.10;18.20;;;;;;;24.59;73.00;97682.74;106919;1284;23173;-91
2022/06/30 05:22:43;;;;;;;17.90;16.20;;;;;;;24.55;72.82;97682.36;106957;1284;24106;-91
2022/06/30 05:27:59;;;;;;;19.70;17.80;;;;;;;24.68;72.80;97672.10;107438;1284;22561;-92
2022/06/30 05:30:28;;;;;;;19.90;18.10;;;;;;;24.65;72.57;97681.39;106677;1284;25450;-89
2022/06/30 05:32:57;;;;;;;19.70;18.00;;;;;;;24.60;72.30;97684.40;105523;1285;22686;-87
2022/06/30 05:35:25;;;;;;;18.00;16.40;;;;;;;24.54;72.22;97681.33;105707;1284;25367;-89
2022/06/30 05:37:54;;;;;;;19.10;17.20;;;;;;;24.64;72.74;97669.04;105993;1284;22567;-94
2022/06/30 05:40:30;;;;;;;20.30;17.90;;;;;;;24.73;72.29;97667.52;108363;1275;22702;-88
2022/06/30 05:46:05;;;;;;;19.50;17.60;;;;;;;25.15;72.13;97664.53;108926;1274;22684;-90
2022/06/30 05:51:49;;;;;;;18.40;16.60;;;;;;;25.48;71.27;97671.31;107804;1285;22675;-91
2022/06/30 05:54:18;;;;;;;19.10;17.20;;;;;;;25.48;70.76;97671.70;106039;1285;22657;-93
2022/06/30 05:56:46;;;;;;;16.70;15.20;;;;;;;25.50;70.68;97672.48;106454;1285;22869;-89
2022/06/30 05:59:14;;;;;;;18.10;16.30;;;;;;;25.53;70.88;97663.63;105735;1288;24354;-83
2022/06/30 06:01:42;;;;;;;17.70;15.90;;;;;;;25.61;70.60;97666.73;105575;1285;25693;-91
2022/06/30 06:04:11;;;;;;;16.40;14.80;;;;;;;25.67;70.57;97666.85;106277;1285;22753;-88
2022/06/30 06:07:19;;;;;;;17.40;15.80;;;;;;;25.83;70.74;97674.09;106520;1277;25333;-88
2022/06/30 06:10:07;;;;;;;17.60;15.80;;;;;;;26.02;70.44;97671.83;107960;1284;23045;-90
2022/06/30 06:12:43;;;;;;;18.00;16.10;;;;;;;26.16;69.56;97674.47;108347;1284;22612;-92
2022/06/30 06:15:12;;;;;;;18.60;16.80;;;;;;;26.30;69.14;97669.45;108344;1284;24426;-92
2022/06/30 06:17:45;;;;;;;18.30;16.50;;;;;;;26.41;68.85;97666.42;108037;1285;22594;-92
2022/06/30 06:20:15;;;;;;;18.20;16.40;;;;;;;26.39;68.69;97674.73;108054;1284;23965;-91
2022/06/30 06:22:43;;;;;;;18.80;16.10;;;;;;;26.36;68.39;97674.60;107616;1285;22547;-93
2022/06/30 06:25:14;;;;;;;17.20;15.40;;;;;;;26.38;68.41;97677.60;106507;1284;22500;-91
2022/06/30 06:27:42;;;;;;;18.30;16.60;;;;;;;26.49;68.43;97672.98;106953;1284;22590;-90
2022/06/30 06:30:11;;;;;;;16.60;15.00;;;;;;;26.59;68.05;97672.91;105899;1285;24376;-91
2022/06/30 06:32:39;;;;;;;17.20;15.50;;;;;;;26.64;67.79;97674.02;105716;1284;24344;-92
2022/06/30 06:35:08;;;;;;;16.90;15.10;;;;;;;26.67;67.58;97678.82;105791;1284;22743;-92
2022/06/30 06:37:38;;;;;;;18.20;16.60;;;;;;;26.66;67.22;97680.80;106826;1284;22545;-92
2022/06/30 06:40:07;;;;;;;16.20;14.70;;;;;;;26.69;67.24;97683.70;107603;1284;22607;-94
2022/06/30 06:42:35;;;;;;;18.10;15.80;;;;;;;26.73;66.90;97679.70;107423;1284;23468;-90
2022/06/30 06:45:10;;;;;;;18.30;16.60;;;;;;;26.77;66.59;97680.14;107500;1284;26535;-93
2022/06/30 06:47:39;;;;;;;16.70;15.00;;;;;;;26.82;66.24;97684.52;107376;1284;23969;-92
2022/06/30 06:50:08;;;;;;;18.20;16.40;;;;;;;26.88;66.14;97684.35;105792;1284;22631;-89
2022/06/30 06:52:37;;;;;;;18.50;15.80;;;;;;;26.89;65.93;97689.89;105978;1284;25402;-87
2022/06/30 06:55:05;;;;;;;18.20;16.40;;;;;;;26.90;65.15;97696.33;108552;1284;22615;-87
2022/06/30 07:00:20;;;;;;;17.60;15.90;;;;;;;26.83;64.56;97699.73;108844;1284;22550;-91
2022/06/30 07:02:48;;;;;;;18.10;16.20;;;;;;;26.77;64.90;97698.16;108591;1284;22669;-91
2022/06/30 07:05:20;;;;;;;18.20;15.90;;;;;;;26.80;64.88;97698.73;107611;1284;22610;-91
2022/06/30 07:07:59;;;;;;;19.40;16.50;;;;;;;26.86;64.85;97699.46;108101;1284;23363;-91
2022/06/30 07:10:28;;;;;;;14.70;13.40;;;;;;;26.93;64.87;97700.33;106805;1284;23369;-92
2022/06/30 07:12:56;;;;;;;18.20;16.20;;;;;;;27.06;64.69;97700.13;107690;1284;22570;-90
2022/06/30 07:15:24;;;;;;;18.80;16.60;;;;;;;27.12;63.92;97699.87;107954;1284;22708;-92
2022/06/30 07:17:53;;;;;;;18.20;16.30;;;;;;;27.12;63.94;97700.02;107627;1285;23024;-90
2022/06/30 07:20:21;;;;;;;19.10;17.10;;;;;;;27.09;63.34;97697.94;105882;1286;22692;-88
2022/06/30 07:22:49;;;;;;;25.90;16.90;;;;;;;27.08;63.54;97697.48;105498;1284;22629;-89
2022/06/30 07:25:34;;;;;;;18.50;16.80;;;;;;;27.16;63.74;97695.10;105442;1284;25417;-87
2022/06/30 07:28:04;;;;;;;18.30;16.40;;;;;;;27.21;63.43;97694.74;105442;1286;24277;-88
2022/06/30 07:30:32;;;;;;;18.80;15.60;;;;;;;27.27;63.33;97693.23;105696;1284;22572;-88
2022/06/30 07:33:00;;;;;;;18.10;16.20;;;;;;;27.36;63.25;97691.08;105333;1285;22718;-87
2022/06/30 07:35:35;;;;;;;17.90;14.60;;;;;;;27.49;63.30;97689.22;105573;1284;25481;-84
2022/06/30 07:38:03;;;;;;;17.60;15.80;;;;;;;27.63;63.06;97685.56;105667;1284;24428;-85
2022/06/30 07:40:31;;;;;;;19.40;15.10;;;;;;;27.76;62.86;97683.73;105423;1284;22618;-85
2022/06/30 07:42:59;;;;;;;19.80;15.70;;;;;;;27.87;62.50;97679.84;105385;1284;22564;-85
2022/06/30 07:45:27;;;;;;;16.80;15.10;;;;;;;27.95;62.30;97682.96;105388;1284;24311;-85
2022/06/30 07:47:55;;;;;;;16.40;14.30;;;;;;;27.99;61.86;97683.92;105269;1284;23287;-85
2022/06/30 07:50:23;;;;;;;15.50;13.90;;;;;;;28.05;62.02;97686.04;105472;1284;24374;-88
2022/06/30 07:52:52;;;;;;;15.00;13.50;;;;;;;28.17;61.80;97687.83;105621;1284;22561;-86
2022/06/30 07:55:20;;;;;;;15.90;14.20;;;;;;;28.31;60.94;97688.16;105584;1284;25573;-85
2022/06/30 07:57:48;;;;;;;16.60;14.90;;;;;;;28.44;61.10;97686.60;105321;1284;22579;-85
2022/06/30 08:00:18;;;;;;;16.90;15.20;;;;;;;28.60;59.81;97685.69;105312;1284;24286;-86
2022/06/30 08:02:46;;;;;;;16.40;14.80;;;;;;;28.73;60.16;97688.61;105886;1284;22572;-85
2022/06/30 08:05:14;;;;;;;16.60;14.70;;;;;;;28.83;59.82;97687.14;106642;1284;24293;-84
2022/06/30 08:07:42;;;;;;;18.90;14.90;;;;;;;28.89;59.07;97688.94;105594;1284;25607;-85
2022/06/30 08:10:11;;;;;;;16.50;14.90;;;;;;;28.99;59.55;97690.16;105498;1284;22725;-85
2022/06/30 08:12:39;;;;;;;15.60;13.70;;;;;;;29.07;59.14;97694.96;105334;1284;22770;-85
2022/06/30 08:15:07;;;;;;;16.00;14.30;;;;;;;29.20;59.14;97694.37;105142;1286;25182;-84
2022/06/30 08:17:35;;;;;;;15.90;13.90;;;;;;;29.38;58.55;97695.57;105266;1284;22560;-84
2022/06/30 08:20:04;;;;;;;15.60;13.60;;;;;;;29.58;58.09;97698.33;105205;1285;22718;-84
2022/06/30 08:22:33;;;;;;;16.30;14.20;;;;;;;29.65;56.21;97699.52;105415;1284;23993;-83
2022/06/30 08:25:03;;;;;;;14.00;12.10;;;;;;;29.58;56.51;97696.40;105398;1284;24275;-85
2022/06/30 08:27:31;;;;;;;14.70;12.60;;;;;;;29.65;56.41;97694.69;105192;1285;25291;-84
2022/06/30 08:29:59;;;;;;;16.30;13.50;;;;;;;29.74;55.16;97697.83;105087;1285;22704;-86
2022/06/30 08:32:27;;;;;;;15.80;13.00;;;;;;;29.64;55.65;97699.06;105136;1286;24025;-85
2022/06/30 08:34:55;;;;;;;13.40;12.10;;;;;;;29.65;55.47;97695.95;105405;1284;22560;-84
2022/06/30 08:37:23;;;;;;;17.40;12.30;;;;;;;29.71;55.58;97691.94;105152;1287;24793;-85
2022/06/30 08:42:40;;;;;;;15.70;12.40;;;;;;;30.00;55.49;97691.11;105115;1284;25434;-85
2022/06/30 08:45:17;;;;;;;16.60;12.50;;;;;;;30.11;54.34;97694.09;105192;1284;25336;-85
2022/06/30 08:47:48;;;;;;;19.30;13.00;;;;;;;30.20;54.58;97691.66;105435;1284;22563;-87
2022/06/30 08:50:17;;;;;;;13.00;11.50;;;;;;;30.31;54.32;97688.14;105156;1285;22683;-85
2022/06/30 08:52:56;;;;;;;13.10;11.50;;;;;;;30.39;53.21;97690.02;105117;1284;22568;-84
2022/06/30 08:56:04;;;;;;;12.30;11.00;;;;;;;30.52;53.97;97693.39;105395;1284;24282;-89
2022/06/30 08:58:54;;;;;;;16.00;11.40;;;;;;;30.77;53.14;97696.73;105421;1284;25373;-89
2022/06/30 09:01:25;;;;;;;14.50;11.00;;;;;;;30.93;52.74;97700.44;105480;1284;25422;-88
2022/06/30 09:03:57;;;;;;;12.40;9.70;;;;;;;31.05;52.18;97697.95;105126;1284;24249;-87
2022/06/30 09:06:25;;;;;;;13.20;9.10;;;;;;;31.13;51.52;97695.74;105411;1284;22859;-88
2022/06/30 09:09:05;;;;;;;14.50;10.20;;;;;;;31.21;51.32;97699.54;105562;1284;24083;-89
2022/06/30 09:12:12;;;;;;;14.00;9.80;;;;;;;31.30;51.10;97693.27;106729;1285;22547;-88
2022/06/30 09:14:43;;;;;;;12.40;9.80;;;;;;;31.46;51.17;97689.88;105875;1291;22680;-87
2022/06/30 09:17:23;;;;;;;11.30;8.20;;;;;;;31.60;50.69;97687.59;105017;1291;25470;-87
2022/06/30 09:20:00;;;;;;;9.70;7.60;;;;;;;31.74;50.09;97683.93;104746;1291;25385;-87
2022/06/30 09:22:37;;;;;;;12.40;7.90;;;;;;;31.80;48.55;97681.67;104680;1291;22545;-88
2022/06/30 09:25:07;;;;;;;9.60;7.50;;;;;;;31.85;48.20;97682.54;104748;1291;22719;-86
2022/06/30 09:27:37;;;;;;;13.80;7.70;;;;;;;31.88;46.95;97681.89;105020;1291;22597;-88
2022/06/30 09:30:09;;;;;;;10.60;7.50;;;;;;;31.85;46.73;97678.64;104139;1291;25376;-87
2022/06/30 09:33:08;;;;;;;8.90;6.00;;;;;;;31.95;46.15;97673.73;104263;1291;22715;-89
2022/06/30 09:35:38;;;;;;;8.10;6.80;;;;;;;32.13;46.67;97667.89;105992;1272;22553;-83
2022/06/30 09:38:14;;;;;;;9.90;5.90;;;;;;;32.37;46.00;97671.55;105259;1284;25377;-84
2022/06/30 09:41:00;;;;;;;10.40;5.60;;;;;;;32.47;45.07;97675.85;105302;1284;22630;-83
2022/06/30 09:43:37;;;;;;;9.40;5.40;;;;;;;32.59;44.95;97676.54;105510;1283;22783;-84
2022/06/30 09:46:08;;;;;;;9.20;5.10;;;;;;;32.82;44.97;97674.63;105481;1283;22619;-84
2022/06/30 09:48:40;;;;;;;9.50;5.20;;;;;;;33.00;44.69;97675.83;105400;1284;22720;-82
2022/06/30 09:51:08;;;;;;;8.20;4.60;;;;;;;33.16;44.15;97678.02;105401;1284;22789;-83
2022/06/30 09:53:36;;;;;;;7.10;4.30;;;;;;;33.31;43.67;97670.35;105464;1282;22973;-83
2022/06/30 09:56:12;;;;;;;9.00;4.60;;;;;;;33.35;41.61;97663.42;105503;1283;24384;-82
2022/06/30 09:58:42;;;;;;;7.80;4.50;;;;;;;33.34;41.24;97660.34;105525;1283;23226;-84
2022/06/30 10:01:11;;;;;;;9.00;4.50;;;;;;;33.40;41.50;97659.08;105581;1283;22705;-83
2022/06/30 10:03:59;;;;;;;8.90;4.40;;;;;;;33.55;40.79;97658.45;105337;1283;25384;-83
2022/06/30 10:06:28;;;;;;;6.20;4.20;;;;;;;33.72;40.98;97655.94;105622;1283;22711;-84
2022/06/30 10:08:57;;;;;;;12.30;5.20;;;;;;;33.82;40.11;97656.16;105524;1282;25364;-84
2022/06/30 10:11:25;;;;;;;9.80;4.90;;;;;;;33.88;39.88;97656.95;105376;1284;24257;-84
2022/06/30 10:13:55;;;;;;;11.10;4.70;;;;;;;33.94;39.58;97653.88;105463;1284;25338;-86
2022/06/30 10:16:26;;;;;;;9.80;4.80;;;;;;;34.06;39.55;97646.93;105497;1285;22569;-84
2022/06/30 10:18:54;;;;;;;13.00;5.40;;;;;;;34.15;38.88;97650.21;105354;1282;22577;-85
2022/06/30 10:21:22;;;;;;;10.90;5.00;;;;;;;34.18;39.10;97651.21;106056;1284;24220;-85
2022/06/30 10:23:51;;;;;;;12.00;5.00;;;;;;;34.26;38.78;97647.61;106346;1283;23166;-84
2022/06/30 10:29:07;;;;;;;9.30;4.80;;;;;;;34.43;38.28;97651.80;105379;1284;22564;-83
2022/06/30 10:31:45;;;;;;;11.60;5.20;;;;;;;34.61;38.53;97646.19;105272;1284;22718;-82
2022/06/30 10:34:39;;;;;;;9.50;5.10;;;;;;;34.78;37.65;97646.91;105389;1284;22565;-83
2022/06/30 10:37:14;;;;;;;8.10;5.10;;;;;;;34.85;37.07;97645.80;105479;1284;24433;-83
2022/06/30 10:40:09;;;;;;;10.30;4.50;;;;;;;34.87;36.90;97646.02;105505;1284;23322;-84
2022/06/30 10:42:49;;;;;;;9.50;4.50;;;;;;;34.90;36.51;97642.89;105888;1285;22562;-86
2022/06/30 10:45:26;;;;;;;7.50;3.80;;;;;;;34.88;35.76;97642.58;105934;1285;26463;-87
2022/06/30 10:47:59;;;;;;;8.50;4.20;;;;;;;34.87;35.52;97635.94;105994;1284;24409;-84
2022/06/30 10:50:33;;;;;;;7.80;4.10;;;;;;;34.92;35.53;97637.15;105576;1284;23581;-87
2022/06/30 10:53:08;;;;;;;6.00;4.10;;;;;;;35.07;35.76;97632.27;105907;1284;23951;-86
2022/06/30 10:56:04;;;;;;;7.80;3.70;;;;;;;35.26;35.57;97634.77;105974;1284;22550;-84
2022/06/30 10:58:33;;;;;;;9.00;3.60;;;;;;;35.48;35.31;97640.20;106129;1284;24342;-85
2022/06/30 11:01:04;;;;;;;11.30;3.90;;;;;;;35.65;34.80;97634.77;105950;1284;24434;-85
2022/06/30 11:03:34;;;;;;;8.40;3.50;;;;;;;35.81;33.52;97633.19;105912;1284;22590;-82
2022/06/30 11:06:16;;;;;;;5.30;3.30;;;;;;;35.89;34.04;97635.55;106001;1284;22624;-82
2022/06/30 11:08:52;;;;;;;8.10;3.40;;;;;;;35.94;32.31;97628.73;106011;1284;25362;-83
2022/06/30 11:11:20;;;;;;;9.60;3.10;;;;;;;35.79;31.07;97631.30;106132;1284;22707;-82
2022/06/30 11:14:03;;;;;;;10.30;2.80;;;;;;;35.75;30.82;97627.09;106110;1284;24418;-82
2022/06/30 11:16:32;;;;;;;;;;;;;;;35.73;30.25;97625.75;106076;1284;25549;-82
2022/06/30 11:19:01;;;;;;;5.90;3.00;;;;;;;35.71;30.54;97623.49;106119;1284;22622;-80
2022/06/30 11:21:30;;;;;;;7.30;3.10;;;;;;;35.81;30.77;97618.55;106127;1284;22610;-81
2022/06/30 11:24:01;;;;;;;8.10;3.40;;;;;;;35.94;30.29;97616.95;106166;1284;22843;-84
2022/06/30 11:29:18;;;;;;;10.40;3.80;;;;;;;36.09;30.59;97613.08;106011;1285;24216;-85
2022/06/30 11:31:46;;;;;;;13.70;3.90;;;;;;;36.26;30.26;97609.18;106623;1284;22701;-82
2022/06/30 11:34:21;;;;;;;9.60;3.80;;;;;;;36.17;30.29;97608.02;107036;1284;25408;-84
2022/06/30 11:36:50;;;;;;;7.30;4.00;;;;;;;35.98;30.76;97605.58;105963;1284;22713;-85
2022/06/30 11:39:20;;;;;;;8.30;3.50;;;;;;;35.75;30.35;97601.91;106175;1284;22591;-83
2022/06/30 11:41:56;;;;;;;11.70;3.60;;;;;;;35.59;30.87;97596.61;106031;1284;22564;-83
2022/06/30 11:44:34;;;;;;;9.50;3.90;;;;;;;35.77;31.12;97593.75;106111;1284;22593;-81
2022/06/30 11:47:04;;;;;;;9.70;3.10;;;;;;;36.04;30.83;97593.52;106113;1284;22728;-82
2022/06/30 11:49:40;;;;;;;6.60;2.80;;;;;;;36.26;29.84;97596.73;106040;1284;23535;-82
2022/06/30 11:52:16;;;;;;;7.40;3.30;;;;;;;36.46;29.94;97595.55;106129;1284;24521;-83
2022/06/30 11:54:49;;;;;;;9.10;3.20;;;;;;;36.68;29.95;97592.61;106223;1284;22571;-83
2022/06/30 11:57:19;;;;;;;7.80;2.80;;;;;;;36.92;29.38;97589.77;106171;1284;24421;-82
2022/06/30 11:59:57;;;;;;;9.10;3.10;;;;;;;37.08;28.32;97589.45;106056;1284;22585;-82
2022/06/30 12:02:27;;;;;;;10.30;3.20;;;;;;;36.99;28.80;97586.63;106097;1284;25414;-82
2022/06/30 12:04:57;;;;;;;9.80;3.50;;;;;;;36.92;28.88;97585.88;106035;1284;24460;-82
2022/06/30 12:07:26;;;;;;;6.80;2.80;;;;;;;37.07;28.17;97580.60;105963;1284;22563;-82
2022/06/30 12:09:56;;;;;;;8.30;3.20;;;;;;;37.21;28.22;97576.23;105940;1284;22570;-82
2022/06/30 12:12:27;;;;;;;14.20;3.80;;;;;;;37.45;27.46;97576.81;105873;1286;22632;-85
2022/06/30 12:14:57;;;;;;;9.00;3.40;;;;;;;37.56;27.07;97574.98;105987;1283;23102;-84
2022/06/30 12:17:31;;;;;;;8.30;3.20;;;;;;;37.69;27.48;97570.27;106046;1284;22559;-84
2022/06/30 12:20:01;;;;;;;7.40;3.30;;;;;;;37.81;27.37;97562.98;105887;1284;25409;-84
2022/06/30 12:22:31;;;;;;;6.60;3.40;;;;;;;37.95;27.50;97562.85;105904;1284;23217;-83
2022/06/30 12:25:00;;;;;;;11.60;3.90;;;;;;;38.05;26.98;97562.27;105953;1284;24294;-83
2022/06/30 12:27:38;;;;;;;9.70;4.30;;;;;;;38.05;27.11;97555.98;105874;1285;22599;-84
2022/06/30 12:30:09;;;;;;;7.50;3.70;;;;;;;38.08;27.59;97558.37;106007;1284;22573;-85
2022/06/30 12:32:38;;;;;;;10.60;3.90;;;;;;;38.28;27.33;97557.64;105964;1284;22590;-85
2022/06/30 12:35:11;;;;;;;8.40;3.60;;;;;;;38.29;26.67;97558.92;106037;1284;23184;-85
2022/06/30 12:37:43;;;;;;;9.00;3.60;;;;;;;38.27;26.83;97559.35;105931;1284;24298;-84
2022/06/30 12:40:22;;;;;;;9.40;3.40;;;;;;;38.31;27.10;97558.34;106074;1284;22588;-86
2022/06/30 12:43:00;;;;;;;8.50;3.50;;;;;;;38.52;26.94;97554.63;106077;1282;22801;-86
2022/06/30 12:45:50;;;;;;;9.10;3.90;;;;;;;38.59;26.99;97557.22;106019;1284;25472;-85
2022/06/30 12:48:46;;;;;;;14.90;3.70;;;;;;;38.62;27.33;97560.05;105937;1284;22871;-86
2022/06/30 12:51:32;;;;;;;11.40;3.70;;;;;;;38.32;26.82;97555.58;106035;1284;22704;-86
2022/06/30 12:54:05;;;;;;;7.10;3.50;;;;;;;37.78;26.88;97552.81;106058;1283;23315;-86
2022/06/30 12:56:34;;;;;;;9.90;3.70;;;;;;;37.67;26.34;97551.17;106123;1283;25470;-84
2022/06/30 12:59:13;;;;;;;10.30;4.10;;;;;;;37.47;26.81;97544.52;106131;1283;22626;-86
2022/06/30 13:01:44;;;;;;;12.20;3.70;;;;;;;37.48;26.68;97537.63;106005;1282;22672;-86
2022/06/30 13:04:15;;;;;;;8.10;4.10;;;;;;;37.66;26.83;97524.80;105527;1284;25249;-82